Time;durP1;ratioP1;P1;durP2;ratioP2;P2;SDS_P1;SDS_P2;PMS_P1;PMS_P2;Temp;Humidity;BMP_temperature;BMP_pressure;BME280_temperature;BME280_humidity;BME280_pressure;Samples;Min_cycle;Max_cycle;Signal;HPM_P1;HPM_P2
2022/04/02 00:01:08;;;;;;;2.42;1.90;;;;;;;2.81;54.34;100162.28;5090951;28;20058;-22
2022/04/02 00:03:34;;;;;;;3.72;1.92;;;;;;;2.80;54.23;100168.38;5068807;28;20016;-24
2022/04/02 00:05:59;;;;;;;5.00;2.50;;;;;;;2.78;54.54;100159.63;5066357;28;20042;-25
2022/04/02 00:08:25;;;;;;;7.60;2.42;;;;;;;2.76;54.69;100157.00;5095923;28;20087;-24
2022/04/02 00:10:51;;;;;;;4.55;2.35;;;;;;;2.75;54.54;100159.59;5092875;28;20161;-23
2022/04/02 00:13:16;;;;;;;2.50;2.22;;;;;;;2.72;54.57;100160.44;5092038;28;20393;-25
2022/04/02 00:15:42;;;;;;;2.15;1.95;;;;;;;2.70;54.81;100154.31;5087950;28;20043;-25
2022/04/02 00:18:07;;;;;;;2.33;2.17;;;;;;;2.69;54.49;100162.97;5086499;28;20035;-24
2022/04/02 00:20:32;;;;;;;3.90;2.17;;;;;;;2.68;54.53;100164.72;5091348;28;20435;-25
2022/04/02 00:25:42;;;;;;;3.72;2.25;;;;;;;2.62;54.75;100169.84;5071343;28;20085;-25
2022/04/02 00:28:07;;;;;;;2.20;2.00;;;;;;;2.63;54.58;100175.94;5091590;28;20028;-24
2022/04/02 00:30:33;;;;;;;3.42;2.20;;;;;;;2.61;54.62;100178.50;5085614;28;20263;-25
2022/04/02 00:32:58;;;;;;;3.40;2.15;;;;;;;2.60;54.56;100175.88;5072491;28;20035;-25
2022/04/02 00:35:23;;;;;;;4.20;2.47;;;;;;;2.58;54.89;100173.25;5089707;28;20030;-24
2022/04/02 00:37:49;;;;;;;4.15;2.75;;;;;;;2.56;54.47;100170.59;5087622;28;20027;-21
2022/04/02 00:40:14;;;;;;;2.20;2.00;;;;;;;2.56;54.68;100172.31;5069981;28;20028;-24
2022/04/02 00:42:40;;;;;;;2.83;2.25;;;;;;;2.53;54.74;100175.75;5084055;28;20023;-25
2022/04/02 00:45:05;;;;;;;2.50;2.15;;;;;;;2.54;54.56;100181.84;5088616;28;20027;-22
2022/04/02 00:47:31;;;;;;;3.60;2.20;;;;;;;2.50;54.80;100174.84;5086995;28;20352;-25
2022/04/02 00:49:57;;;;;;;2.42;2.05;;;;;;;2.48;54.78;100176.53;5089384;28;20115;-25
2022/04/02 00:52:25;;;;;;;2.30;2.10;;;;;;;2.46;54.80;100180.88;5083976;28;20039;-25
2022/04/02 00:54:52;;;;;;;2.22;2.03;;;;;;;2.43;54.93;100179.94;5055437;28;20464;-25
2022/04/02 00:57:17;;;;;;;3.58;2.03;;;;;;;2.41;54.80;100189.44;5069092;28;20791;-25
2022/04/02 00:59:43;;;;;;;2.67;2.40;;;;;;;2.40;54.92;100182.50;5070150;28;20438;-22
2022/04/02 01:02:09;;;;;;;2.45;2.05;;;;;;;2.40;54.70;100185.09;5087436;28;20024;-24
2022/04/02 01:04:34;;;;;;;3.22;2.28;;;;;;;2.39;54.63;100183.34;5087858;28;20020;-25
2022/04/02 01:07:00;;;;;;;4.40;2.25;;;;;;;2.33;54.91;100180.63;5088528;28;20498;-23
2022/04/02 01:09:25;;;;;;;3.45;2.60;;;;;;;2.34;55.01;100189.34;5092468;28;20032;-25
2022/04/02 01:11:52;;;;;;;3.30;2.42;;;;;;;2.34;54.74;100184.13;5090405;28;20040;-24
2022/04/02 01:14:18;;;;;;;2.53;2.10;;;;;;;2.32;54.70;100191.91;5088882;28;20020;-24
2022/04/02 01:16:43;;;;;;;3.35;2.17;;;;;;;2.30;54.64;100198.81;5087266;28;20614;-25
2022/04/02 01:19:10;;;;;;;3.53;2.30;;;;;;;2.29;54.44;100197.06;5088526;28;20486;-25
2022/04/02 01:21:36;;;;;;;2.42;2.10;;;;;;;2.29;54.93;100202.25;5082819;28;20040;-24
2022/04/02 01:24:02;;;;;;;4.70;2.05;;;;;;;2.26;54.81;100197.88;5089729;28;20028;-24
2022/04/02 01:26:28;;;;;;;3.15;2.17;;;;;;;2.24;54.84;100201.31;5088630;28;20043;-24
2022/04/02 01:28:57;;;;;;;2.45;1.92;;;;;;;2.21;54.96;100198.66;5087427;28;20433;-25
2022/04/02 01:31:24;;;;;;;5.07;2.38;;;;;;;2.20;54.98;100196.91;5090074;28;20027;-25
2022/04/02 01:33:51;;;;;;;5.15;2.40;;;;;;;2.18;54.77;100197.75;5091326;28;20028;-24
2022/04/02 01:36:17;;;;;;;2.63;1.73;;;;;;;2.17;55.06;100209.00;5092603;28;20043;-25
2022/04/02 01:38:43;;;;;;;4.20;2.10;;;;;;;2.14;55.00;100202.88;5076378;28;20035;-24
2022/04/02 01:41:08;;;;;;;2.47;2.10;;;;;;;2.13;54.89;100212.41;5090941;28;20020;-24
2022/04/02 01:43:34;;;;;;;2.88;1.67;;;;;;;2.12;55.03;100210.66;5089500;28;20082;-24
2022/04/02 01:46:01;;;;;;;2.47;1.90;;;;;;;2.11;55.33;100213.22;5090205;28;20028;-24
2022/04/02 01:48:27;;;;;;;5.18;2.50;;;;;;;2.07;55.19;100212.31;5090616;28;20020;-24
2022/04/02 01:50:52;;;;;;;4.05;2.13;;;;;;;2.09;54.96;100212.31;5091103;28;20024;-25
2022/04/02 01:53:19;;;;;;;3.17;2.88;;;;;;;2.06;55.20;100218.34;5094409;28;20471;-25
2022/04/02 01:55:45;;;;;;;2.63;2.00;;;;;;;2.04;55.05;100220.91;5074274;28;20024;-23
2022/04/02 01:58:10;;;;;;;2.53;2.20;;;;;;;2.03;55.08;100216.56;5091660;28;20753;-25
2022/04/02 02:00:36;;;;;;;2.97;2.67;;;;;;;2.01;55.18;100222.59;5095943;28;20045;-25
2022/04/02 02:03:01;;;;;;;3.17;2.45;;;;;;;2.00;55.16;100226.03;5092631;28;20039;-25
2022/04/02 02:05:27;;;;;;;3.53;2.15;;;;;;;1.98;55.15;100223.41;5075703;28;20424;-25
2022/04/02 02:07:53;;;;;;;2.17;2.00;;;;;;;1.97;55.02;100226.84;5072753;28;20073;-25
2022/04/02 02:10:19;;;;;;;3.95;2.63;;;;;;;1.96;55.12;100224.25;5089686;28;20024;-25
2022/04/02 02:12:46;;;;;;;2.50;1.90;;;;;;;1.94;54.94;100231.13;5092560;28;20039;-25
2022/04/02 02:15:16;;;;;;;2.47;2.28;;;;;;;1.92;55.14;100229.38;5091019;28;20524;-23
2022/04/02 02:17:43;;;;;;;6.20;2.30;;;;;;;1.93;55.07;100230.22;5090968;28;20027;-24
2022/04/02 02:20:09;;;;;;;3.60;2.83;;;;;;;1.90;55.18;100228.47;5088309;28;20040;-25
2022/04/02 02:22:35;;;;;;;4.00;2.00;;;;;;;1.88;54.88;100232.78;5087265;28;20108;-24
2022/04/02 02:25:00;;;;;;;2.78;2.33;;;;;;;1.85;55.09;100227.50;5073824;28;20123;-25
2022/04/02 02:27:26;;;;;;;2.72;2.28;;;;;;;1.86;55.14;100234.44;5089206;28;20032;-23
2022/04/02 02:29:52;;;;;;;6.80;2.90;;;;;;;1.82;55.15;100231.75;5093551;28;20035;-25
2022/04/02 02:32:17;;;;;;;3.13;2.13;;;;;;;1.82;55.24;100230.03;5092441;28;20431;-25
2022/04/02 02:37:28;;;;;;;5.35;2.95;;;;;;;1.79;55.50;100227.38;5090572;28;20172;-25
2022/04/02 02:39:55;;;;;;;3.63;2.40;;;;;;;1.78;55.28;100228.22;5091473;28;20032;-25
2022/04/02 02:42:21;;;;;;;4.93;2.97;;;;;;;1.77;55.07;100223.88;5091612;28;20446;-25
2022/04/02 02:44:47;;;;;;;4.20;2.70;;;;;;;1.75;55.20;100230.75;5090036;28;20172;-25
2022/04/02 02:47:12;;;;;;;4.20;2.50;;;;;;;1.73;55.32;100228.13;5094879;28;20035;-24
2022/04/02 02:49:37;;;;;;;4.45;2.65;;;;;;;1.74;55.21;100235.06;5094571;28;20024;-25
2022/04/02 02:52:03;;;;;;;3.38;2.67;;;;;;;1.71;55.52;100228.94;5091269;28;20027;-25
2022/04/02 02:54:29;;;;;;;3.85;2.33;;;;;;;1.69;55.57;100228.03;5087659;28;20157;-25
2022/04/02 02:56:54;;;;;;;5.00;3.08;;;;;;;1.67;55.30;100228.03;5091719;28;20040;-25
2022/04/02 02:59:19;;;;;;;5.25;3.22;;;;;;;1.67;55.45;100226.28;5090725;28;20690;-25
2022/04/02 03:01:45;;;;;;;4.20;2.97;;;;;;;1.65;55.33;100232.28;5090164;28;20027;-24
2022/04/02 03:04:10;;;;;;;3.17;2.47;;;;;;;1.63;55.38;100237.47;5075066;28;20458;-25
2022/04/02 03:06:35;;;;;;;3.97;2.50;;;;;;;1.64;55.27;100249.59;5091332;28;20028;-24
2022/04/02 03:09:01;;;;;;;3.58;2.63;;;;;;;1.62;55.53;100251.31;5089369;28;20043;-24
2022/04/02 03:11:26;;;;;;;4.40;2.97;;;;;;;1.61;55.63;100249.56;5089686;28;20027;-25
2022/04/02 03:13:52;;;;;;;6.40;2.60;;;;;;;1.60;55.48;100253.00;5072292;28;20035;-24
2022/04/02 03:16:17;;;;;;;3.08;2.60;;;;;;;1.59;55.71;100261.66;5087291;28;20130;-22
2022/04/02 03:18:43;;;;;;;3.45;2.60;;;;;;;1.58;55.51;100259.00;5086972;28;20027;-25
2022/04/02 03:21:08;;;;;;;6.40;3.38;;;;;;;1.56;55.89;100258.97;5072848;28;20406;-24
2022/04/02 03:23:34;;;;;;;3.80;2.78;;;;;;;1.55;55.70;100259.81;5089191;28;20032;-25
2022/04/02 03:25:59;;;;;;;3.17;2.47;;;;;;;1.54;55.43;100265.88;5091287;28;20555;-25
2022/04/02 03:28:24;;;;;;;4.80;3.15;;;;;;;1.53;55.82;100271.91;5089078;28;20030;-25
2022/04/02 03:30:50;;;;;;;3.65;2.75;;;;;;;1.51;55.86;100268.41;5091970;28;20107;-24
2022/04/02 03:33:16;;;;;;;3.05;2.67;;;;;;;1.49;56.02;100270.09;5075198;28;20086;-23
2022/04/02 03:35:44;;;;;;;3.35;3.03;;;;;;;1.50;56.08;100274.47;5091411;28;20095;-24
2022/04/02 03:38:09;;;;;;;4.10;2.67;;;;;;;1.49;55.61;100280.47;5090044;28;20127;-24
2022/04/02 03:40:35;;;;;;;4.03;2.88;;;;;;;1.46;55.86;100270.91;5094395;28;20161;-24
2022/04/02 03:43:01;;;;;;;2.67;2.40;;;;;;;1.46;55.89;100275.25;5070864;28;20016;-23
2022/04/02 03:45:26;;;;;;;4.88;3.05;;;;;;;1.45;56.04;100282.16;5091377;28;20024;-25
2022/04/02 03:47:52;;;;;;;3.38;3.00;;;;;;;1.44;55.77;100284.72;5089781;28;20035;-25
2022/04/02 03:50:17;;;;;;;5.95;2.88;;;;;;;1.43;55.88;100277.75;5088600;28;20426;-24
2022/04/02 03:52:43;;;;;;;4.53;2.78;;;;;;;1.42;55.85;100279.47;5087758;28;20095;-25
2022/04/02 03:55:09;;;;;;;3.88;2.80;;;;;;;1.40;55.93;100276.84;5089267;28;20032;-25
2022/04/02 03:57:35;;;;;;;4.47;2.90;;;;;;;1.40;56.03;100289.84;5086583;28;20025;-25
2022/04/02 04:00:01;;;;;;;6.70;3.08;;;;;;;1.38;56.13;100288.94;5069328;28;20024;-25
2022/04/02 04:02:27;;;;;;;4.43;2.90;;;;;;;1.38;55.92;100291.53;5090174;28;20027;-25
2022/04/02 04:04:52;;;;;;;4.78;2.72;;;;;;;1.39;56.16;100289.78;5084664;28;20367;-22
2022/04/02 04:07:18;;;;;;;4.18;2.90;;;;;;;1.37;56.37;100294.97;5088180;28;20107;-23
2022/04/02 04:09:44;;;;;;;3.22;2.85;;;;;;;1.36;56.13;100300.13;5093845;28;20257;-23
2022/04/02 04:12:10;;;;;;;3.88;2.33;;;;;;;1.34;56.21;100292.31;5089010;28;20036;-25
2022/04/02 04:14:36;;;;;;;3.65;3.08;;;;;;;1.32;56.38;100299.19;5090537;28;20532;-25
2022/04/02 04:17:01;;;;;;;3.67;3.08;;;;;;;1.32;56.17;100298.28;5088906;28;20394;-25
2022/04/02 04:19:27;;;;;;;3.42;2.67;;;;;;;1.33;56.26;100306.13;5089291;28;20462;-25
2022/04/02 04:21:53;;;;;;;4.70;2.63;;;;;;;1.31;56.23;100307.84;5071368;28;20443;-25
2022/04/02 04:24:19;;;;;;;3.47;2.55;;;;;;;1.31;56.65;100314.75;5088051;28;20027;-25
2022/04/02 04:26:44;;;;;;;3.92;3.13;;;;;;;1.28;56.19;100313.84;5090599;28;20032;-24
2022/04/02 04:29:10;;;;;;;2.80;2.60;;;;;;;1.26;56.44;100314.63;5088728;28;20409;-25
2022/04/02 04:31:36;;;;;;;3.55;2.45;;;;;;;1.28;56.39;100318.16;5086710;28;20672;-23
2022/04/02 04:34:02;;;;;;;3.38;2.60;;;;;;;1.26;56.78;100325.00;5070680;28;20036;-25
2022/04/02 04:36:29;;;;;;;4.68;2.70;;;;;;;1.26;56.34;100323.31;5090838;28;20111;-24
2022/04/02 04:38:56;;;;;;;5.28;3.10;;;;;;;1.24;56.67;100330.16;5071047;28;20036;-24
2022/04/02 04:41:22;;;;;;;6.35;3.38;;;;;;;1.24;56.70;100331.91;5090259;28;20041;-25
2022/04/02 04:43:48;;;;;;;2.83;2.50;;;;;;;1.22;56.62;100331.88;5088715;28;20462;-24
2022/04/02 04:46:15;;;;;;;3.15;2.80;;;;;;;1.21;56.47;100335.31;5089447;28;20023;-24
2022/04/02 04:48:40;;;;;;;4.55;2.80;;;;;;;1.19;56.64;100341.28;5085250;28;20028;-24
2022/04/02 04:51:07;;;;;;;4.03;3.25;;;;;;;1.19;56.83;100344.78;5055519;28;20028;-24
2022/04/02 04:53:32;;;;;;;3.25;2.80;;;;;;;1.19;57.02;100343.91;5082619;28;20032;-25
2022/04/02 04:55:58;;;;;;;4.10;3.70;;;;;;;1.19;56.57;100339.59;5081885;28;20367;-24
2022/04/02 04:58:25;;;;;;;3.95;2.65;;;;;;;1.17;56.74;100348.19;5067152;28;20035;-20
2022/04/02 05:00:50;;;;;;;3.78;2.53;;;;;;;1.17;56.71;100350.78;5069633;28;20020;-25
2022/04/02 05:03:16;;;;;;;3.50;2.80;;;;;;;1.17;56.74;100350.78;5089992;28;20077;-23
2022/04/02 05:05:41;;;;;;;4.50;2.90;;;;;;;1.14;57.26;100347.25;5093809;28;20028;-25
2022/04/02 05:08:07;;;;;;;4.22;2.85;;;;;;;1.15;56.79;100346.44;5095137;28;21159;-25
2022/04/02 05:10:38;;;;;;;3.75;2.75;;;;;;;1.12;57.12;100350.66;5095040;28;20019;-25
2022/04/02 05:13:04;;;;;;;5.78;2.80;;;;;;;1.12;57.46;100358.47;5076923;28;20040;-25
2022/04/02 05:15:29;;;;;;;3.65;2.90;;;;;;;1.10;57.16;100353.22;5087743;28;20071;-25
2022/04/02 05:17:56;;;;;;;7.53;3.40;;;;;;;1.11;57.28;100360.22;5085635;28;20036;-23
2022/04/02 05:20:21;;;;;;;2.70;2.47;;;;;;;1.10;57.14;100361.03;5092035;28;20023;-23
2022/04/02 05:22:47;;;;;;;3.10;2.75;;;;;;;1.09;57.34;100358.38;5071920;28;20024;-25
2022/04/02 05:25:12;;;;;;;4.05;2.97;;;;;;;1.09;57.51;100360.97;5075842;28;20019;-25
2022/04/02 05:27:37;;;;;;;3.17;2.88;;;;;;;1.07;57.18;100360.94;5086657;28;20031;-25
2022/04/02 05:30:04;;;;;;;3.75;3.03;;;;;;;1.08;57.60;100364.44;5092712;28;20035;-24
2022/04/02 05:32:33;;;;;;;6.05;3.05;;;;;;;1.07;57.65;100371.31;5067667;28;20055;-22
2022/04/02 05:34:58;;;;;;;4.10;3.08;;;;;;;1.06;57.68;100379.97;5086872;28;20083;-24
2022/04/02 05:37:24;;;;;;;3.80;3.40;;;;;;;1.07;57.83;100384.31;5091391;28;20019;-25
2022/04/02 05:39:50;;;;;;;3.60;3.15;;;;;;;1.02;57.45;100362.56;5087169;28;20109;-24
2022/04/02 05:42:15;;;;;;;3.97;3.15;;;;;;;1.07;57.92;100384.31;5088347;28;20030;-25
2022/04/02 05:44:41;;;;;;;3.28;2.97;;;;;;;1.05;57.92;100379.94;5090421;28;20526;-21
2022/04/02 05:47:06;;;;;;;3.90;3.17;;;;;;;1.05;57.67;100393.81;5087827;28;20032;-22
2022/04/02 05:49:32;;;;;;;3.10;2.53;;;;;;;1.06;57.96;100394.69;5089904;28;20039;-22
2022/04/02 05:51:58;;;;;;;5.18;3.22;;;;;;;1.04;58.17;100399.84;5092461;28;20028;-22
2022/04/02 05:54:24;;;;;;;3.00;2.72;;;;;;;1.05;58.09;100401.59;5093992;28;20030;-22
2022/04/02 05:56:51;;;;;;;3.20;2.90;;;;;;;1.05;57.94;100398.09;5089288;28;20059;-22
2022/04/02 05:59:17;;;;;;;5.78;2.90;;;;;;;1.06;57.82;100405.94;5055898;28;20107;-22
2022/04/02 06:01:42;;;;;;;4.38;2.55;;;;;;;1.07;58.35;100396.44;5085114;28;20057;-22
2022/04/02 06:04:09;;;;;;;3.60;2.70;;;;;;;1.07;58.14;100402.50;5058409;28;20012;-22
2022/04/02 06:06:34;;;;;;;3.30;2.50;;;;;;;1.07;58.09;100412.88;5091545;28;20119;-22
2022/04/02 06:09:00;;;;;;;3.10;2.80;;;;;;;1.07;58.02;100412.88;5086891;28;20138;-22
2022/04/02 06:11:25;;;;;;;3.70;2.70;;;;;;;1.10;58.02;100419.91;5088463;28;20039;-22
2022/04/02 06:13:51;;;;;;;4.63;2.58;;;;;;;1.09;57.95;100419.03;5073871;28;20028;-22
2022/04/02 06:16:16;;;;;;;2.58;2.38;;;;;;;1.10;58.28;100425.97;5085677;28;20462;-22
2022/04/02 06:18:43;;;;;;;3.42;2.90;;;;;;;1.08;58.10;100425.06;5086327;28;20845;-22
2022/04/02 06:21:08;;;;;;;3.90;2.75;;;;;;;1.12;58.84;100437.28;5072274;28;20059;-22
2022/04/02 06:23:34;;;;;;;4.38;2.90;;;;;;;1.12;58.39;100439.88;5091762;28;20096;-23
2022/04/02 06:25:59;;;;;;;3.13;2.65;;;;;;;1.14;58.61;100435.59;5092160;28;20023;-22
2022/04/02 06:28:24;;;;;;;3.78;2.50;;;;;;;1.13;58.37;100444.22;5090455;28;20040;-23
2022/04/02 06:30:50;;;;;;;3.15;2.33;;;;;;;1.14;58.70;100440.78;5087087;28;20500;-22
2022/04/02 06:33:16;;;;;;;2.75;2.53;;;;;;;1.18;58.63;100436.56;5090274;28;20064;-23
2022/04/02 06:35:41;;;;;;;5.35;3.20;;;;;;;1.19;58.59;100450.41;5090447;28;20092;-22
2022/04/02 06:38:07;;;;;;;3.20;2.60;;;;;;;1.22;58.54;100450.50;5087915;28;20053;-22
2022/04/02 06:40:32;;;;;;;6.82;3.03;;;;;;;1.22;58.93;100446.19;5090106;28;20486;-21
2022/04/02 06:42:58;;;;;;;4.63;2.63;;;;;;;1.24;59.03;100448.84;5091958;28;20070;-22
2022/04/02 06:45:24;;;;;;;3.85;3.25;;;;;;;1.26;58.56;100449.75;5089057;28;20024;-22
2022/04/02 06:47:50;;;;;;;3.25;2.88;;;;;;;1.28;58.70;100450.66;5089227;28;20497;-22
2022/04/02 06:50:16;;;;;;;3.35;3.05;;;;;;;1.28;59.23;100448.06;5069873;28;20028;-22
2022/04/02 06:52:43;;;;;;;4.43;3.03;;;;;;;1.31;58.82;100442.97;5072296;28;20181;-22
2022/04/02 06:55:08;;;;;;;4.70;2.58;;;;;;;1.34;59.03;100456.03;5089573;28;20024;-23
2022/04/02 06:57:40;;;;;;;4.80;2.70;;;;;;;1.34;59.23;100453.44;5086854;28;20494;-22
2022/04/02 07:00:06;;;;;;;3.42;2.97;;;;;;;1.38;59.29;100457.88;5090210;28;20069;-22
2022/04/02 07:02:32;;;;;;;3.63;3.10;;;;;;;1.41;59.13;100462.25;5074692;28;20540;-22
2022/04/02 07:04:57;;;;;;;5.25;3.17;;;;;;;1.45;59.42;100458.00;5074426;28;20024;-22
2022/04/02 07:07:22;;;;;;;3.00;2.65;;;;;;;1.49;59.49;100459.84;5090590;28;20059;-22
2022/04/02 07:09:48;;;;;;;3.70;2.83;;;;;;;1.51;59.72;100451.25;5073759;28;20059;-22
2022/04/02 07:12:13;;;;;;;4.82;2.75;;;;;;;1.54;59.56;100453.03;5073571;28;20346;-22
2022/04/02 07:14:39;;;;;;;3.05;2.58;;;;;;;1.58;59.76;100467.88;5090072;28;20025;-22
2022/04/02 07:17:04;;;;;;;4.22;2.58;;;;;;;1.62;59.80;100461.00;5091781;28;20096;-22
2022/04/02 07:19:30;;;;;;;2.72;2.53;;;;;;;1.67;59.40;100462.03;5089645;28;20051;-22
2022/04/02 07:21:56;;;;;;;4.43;3.10;;;;;;;1.70;59.56;100464.66;5094015;28;20046;-22
2022/04/02 07:24:22;;;;;;;5.07;2.97;;;;;;;1.74;59.75;100470.84;5094471;28;20371;-22
2022/04/02 07:26:48;;;;;;;4.85;2.95;;;;;;;1.78;60.11;100476.16;5091834;28;20121;-22
2022/04/02 07:29:15;;;;;;;4.25;2.95;;;;;;;1.84;59.83;100471.94;5072534;28;20040;-22
2022/04/02 07:31:46;;;;;;;4.45;2.70;;;;;;;1.87;60.09;100478.06;5088186;28;20108;-22
2022/04/02 07:34:13;;;;;;;3.55;2.70;;;;;;;1.93;60.30;100479.94;5089245;28;20489;-22
2022/04/02 07:37:01;;;;;;;3.20;2.63;;;;;;;1.97;60.07;100475.72;5089451;28;20036;-23
2022/04/02 07:39:35;;;;;;;4.97;3.00;;;;;;;2.02;60.40;100480.16;5074084;28;20435;-22
2022/04/02 07:42:20;;;;;;;5.65;3.03;;;;;;;2.07;60.31;100471.59;5090948;28;20505;-23
2022/04/02 07:45:09;;;;;;;5.72;3.38;;;;;;;2.13;60.02;100477.81;5089249;28;20031;-23
2022/04/02 07:47:39;;;;;;;3.33;3.00;;;;;;;2.19;60.29;100477.06;5090860;28;20051;-22
2022/04/02 07:50:13;;;;;;;3.63;2.63;;;;;;;2.24;60.31;100477.16;5072706;28;20074;-22
2022/04/02 07:52:43;;;;;;;6.60;2.83;;;;;;;2.30;60.21;100477.28;5091318;28;20020;-22
2022/04/02 07:55:10;;;;;;;3.85;2.60;;;;;;;2.34;60.07;100481.75;5090497;28;20505;-22
2022/04/02 07:57:41;;;;;;;6.32;2.85;;;;;;;2.40;59.83;100479.25;5089490;28;20105;-22
2022/04/02 08:00:10;;;;;;;3.65;3.08;;;;;;;2.48;59.87;100483.75;5089017;28;20023;-22
2022/04/02 08:02:36;;;;;;;5.90;3.35;;;;;;;2.55;59.90;100480.44;5093129;28;20055;-22
2022/04/02 08:05:02;;;;;;;4.38;2.65;;;;;;;2.62;59.82;100487.53;5074910;28;20312;-22
2022/04/02 08:07:32;;;;;;;5.72;3.70;;;;;;;2.67;59.90;100485.03;5087188;28;20470;-22
2022/04/02 08:09:59;;;;;;;4.25;3.08;;;;;;;2.73;59.76;100489.47;5092068;28;20535;-22
2022/04/02 08:12:25;;;;;;;4.03;2.65;;;;;;;2.81;59.87;100495.72;5055498;28;20020;-22
2022/04/02 08:14:51;;;;;;;9.13;3.47;;;;;;;2.89;59.91;100494.13;5090237;28;20027;-22
2022/04/02 08:17:19;;;;;;;5.93;3.28;;;;;;;2.95;59.63;100502.06;5070673;28;21031;-23
2022/04/02 08:19:45;;;;;;;4.60;2.85;;;;;;;3.03;59.43;100503.94;5089694;28;20053;-22
2022/04/02 08:22:11;;;;;;;5.25;3.40;;;;;;;3.10;59.36;100505.81;5073026;28;20016;-22
2022/04/02 08:24:36;;;;;;;3.47;2.92;;;;;;;3.17;58.87;100507.69;5071566;28;20013;-21
2022/04/02 08:27:04;;;;;;;3.67;3.35;;;;;;;3.25;58.92;100499.13;5071092;28;20027;-22
2022/04/02 08:29:35;;;;;;;4.65;3.10;;;;;;;3.29;58.87;100495.72;5089067;28;20032;-22
2022/04/02 08:32:26;;;;;;;5.72;3.60;;;;;;;3.38;58.38;100506.31;5089546;28;20028;-23
2022/04/02 08:35:10;;;;;;;3.83;3.13;;;;;;;3.43;58.39;100504.66;5088598;28;20427;-22
2022/04/02 08:38:26;;;;;;;5.57;3.58;;;;;;;3.53;57.96;100507.44;5090602;28;20050;-22
2022/04/02 08:41:01;;;;;;;4.40;3.00;;;;;;;3.60;57.89;100509.28;5053406;28;20048;-22
2022/04/02 08:44:02;;;;;;;3.70;3.40;;;;;;;3.64;57.47;100508.50;5087543;28;20069;-21
2022/04/02 08:46:40;;;;;;;5.05;3.28;;;;;;;3.71;56.92;100518.16;5052370;28;20513;-21
2022/04/02 08:49:17;;;;;;;4.60;3.75;;;;;;;3.76;57.03;100515.66;5095329;28;20421;-21
2022/04/02 08:51:48;;;;;;;7.93;4.30;;;;;;;3.80;57.00;100516.59;5094109;28;20023;-22
2022/04/02 08:54:23;;;;;;;5.63;3.65;;;;;;;3.86;56.80;100521.88;5092157;28;20110;-21
2022/04/02 08:56:55;;;;;;;10.93;3.25;;;;;;;3.92;56.31;100524.59;5090388;28;20060;-22
2022/04/02 08:59:47;;;;;;;;;;;;;;;3.98;56.03;100529.91;5088764;28;20275;-22
2022/04/02 09:02:38;;;;;;;;;;;;;;;4.04;56.31;100523.03;5072275;28;19916;-21
2022/04/02 09:05:22;;;;;;;3.53;2.58;;;;;;;4.07;56.02;100528.31;5056042;28;19912;-21
2022/04/02 09:08:02;;;;;;;5.07;3.10;;;;;;;4.13;55.58;100528.41;5071058;28;20024;-21
2022/04/02 09:10:58;;;;;;;3.47;3.00;;;;;;;4.18;55.99;100526.75;5090098;28;20082;-21
2022/04/02 09:13:56;;;;;;;4.07;3.28;;;;;;;4.27;55.78;100538.19;5071104;28;20024;-22
2022/04/02 09:16:26;;;;;;;4.60;3.33;;;;;;;4.32;55.89;100544.34;5091174;28;20105;-22
2022/04/02 09:19:10;;;;;;;2.65;2.45;;;;;;;4.37;55.15;100542.69;5086477;28;20051;-21
2022/04/02 09:21:54;;;;;;;4.18;3.10;;;;;;;4.44;54.69;100538.41;5068173;28;20031;-22
2022/04/02 09:24:47;;;;;;;3.33;2.45;;;;;;;4.47;54.83;100534.09;5087746;28;20035;-21
2022/04/02 09:27:32;;;;;;;4.78;3.08;;;;;;;4.48;54.74;100543.72;5089388;28;20612;-21
2022/04/02 09:30:03;;;;;;;3.83;2.97;;;;;;;4.54;54.22;100542.03;5073472;28;20115;-21
2022/04/02 09:33:09;;;;;;;3.10;2.80;;;;;;;4.59;54.68;100538.63;5071919;28;20059;-22
2022/04/02 09:36:04;;;;;;;4.15;2.45;;;;;;;4.63;54.56;100542.16;5089908;28;20478;-22
2022/04/02 09:38:45;;;;;;;5.72;2.72;;;;;;;4.65;54.13;100543.06;5074061;28;20719;-21
2022/04/02 09:41:16;;;;;;;2.60;2.38;;;;;;;4.71;53.96;100545.72;5055740;28;20028;-22
2022/04/02 09:44:00;;;;;;;4.32;2.70;;;;;;;4.74;54.88;100545.78;5090425;28;20280;-22
2022/04/02 09:46:56;;;;;;;5.07;2.78;;;;;;;4.77;54.10;100549.31;5089876;28;20069;-22
2022/04/02 09:49:24;;;;;;;4.25;2.65;;;;;;;4.81;53.93;100544.16;5087393;28;20028;-22
2022/04/02 09:52:01;;;;;;;3.55;2.63;;;;;;;4.84;54.14;100548.53;5074781;28;20111;-21
2022/04/02 09:54:37;;;;;;;2.55;2.35;;;;;;;4.85;54.15;100548.53;5092024;28;20027;-21
2022/04/02 09:57:26;;;;;;;3.55;2.67;;;;;;;4.88;53.92;100550.31;5074492;28;20020;-22
2022/04/02 10:00:08;;;;;;;4.53;3.38;;;;;;;4.92;54.01;100546.88;5090338;28;20050;-22
2022/04/02 10:03:05;;;;;;;4.18;2.83;;;;;;;4.95;53.46;100546.03;5093303;28;20130;-22
2022/04/02 10:05:44;;;;;;;4.07;3.03;;;;;;;4.95;53.81;100552.16;5091272;28;20791;-22
2022/04/02 10:08:37;;;;;;;4.53;3.05;;;;;;;5.00;53.61;100562.63;5076949;28;20035;-22
2022/04/02 10:11:06;;;;;;;5.60;3.15;;;;;;;5.01;53.59;100557.44;5097611;28;20408;-22
2022/04/02 10:13:33;;;;;;;4.57;2.70;;;;;;;5.05;53.52;100557.47;5097199;28;20023;-22
2022/04/02 10:15:59;;;;;;;3.17;2.58;;;;;;;5.06;53.66;100560.09;5097466;28;20114;-22
2022/04/02 10:18:26;;;;;;;3.38;2.97;;;;;;;5.09;53.10;100564.50;5073806;28;20027;-22
2022/04/02 10:20:52;;;;;;;2.88;2.45;;;;;;;5.10;53.91;100568.88;5093535;28;20501;-22
2022/04/02 10:23:25;;;;;;;4.05;3.42;;;;;;;5.11;53.59;100558.41;5094470;28;20021;-22
2022/04/02 10:26:09;;;;;;;6.07;2.90;;;;;;;5.13;53.14;100561.06;5080877;28;20039;-22
2022/04/02 10:28:51;;;;;;;4.60;2.50;;;;;;;5.15;53.58;100567.19;5095649;28;20035;-22
2022/04/02 10:31:40;;;;;;;5.93;2.60;;;;;;;5.20;53.73;100560.25;5095649;28;20412;-22
2022/04/02 10:34:19;;;;;;;3.42;2.70;;;;;;;5.24;53.08;100563.81;5101141;28;20020;-22
2022/04/02 10:36:50;;;;;;;2.70;2.50;;;;;;;5.28;53.42;100555.13;5088385;28;20028;-22
2022/04/02 10:39:16;;;;;;;3.50;3.20;;;;;;;5.31;53.04;100559.50;5097312;28;20023;-21
2022/04/02 10:41:44;;;;;;;3.65;2.80;;;;;;;5.34;52.92;100559.56;5095521;28;20027;-22
2022/04/02 10:44:11;;;;;;;3.80;2.78;;;;;;;5.39;52.76;100555.22;5096401;28;20024;-22
2022/04/02 10:46:41;;;;;;;3.30;2.75;;;;;;;5.45;52.85;100557.94;5060510;28;20046;-22
2022/04/02 10:49:10;;;;;;;3.35;2.35;;;;;;;5.50;53.61;100556.22;5090456;28;20273;-22
2022/04/02 10:51:38;;;;;;;6.20;3.22;;;;;;;5.52;53.08;100549.28;5090083;28;20453;-22
2022/04/02 10:54:10;;;;;;;3.20;2.90;;;;;;;5.58;52.58;100553.69;5090106;28;20402;-22
2022/04/02 10:56:42;;;;;;;5.90;3.15;;;;;;;5.60;52.59;100559.81;5090018;28;20053;-21
2022/04/02 10:59:09;;;;;;;3.17;2.70;;;;;;;5.64;52.90;100560.72;5098447;28;20024;-22
2022/04/02 11:01:34;;;;;;;4.35;3.00;;;;;;;5.63;52.65;100562.44;5079897;28;20027;-22
2022/04/02 11:04:07;;;;;;;4.30;2.70;;;;;;;5.70;52.41;100558.16;5082760;28;20027;-22
2022/04/02 11:06:47;;;;;;;5.03;2.80;;;;;;;5.72;52.58;100551.19;5079553;28;20540;-21
2022/04/02 11:09:25;;;;;;;4.60;3.15;;;;;;;5.75;52.45;100551.22;5095812;28;20064;-22
2022/04/02 11:11:52;;;;;;;4.35;3.20;;;;;;;5.79;52.53;100552.13;5083834;28;20543;-22
2022/04/02 11:14:20;;;;;;;4.18;2.90;;;;;;;5.81;52.21;100555.66;5096770;28;20036;-22
2022/04/02 11:16:46;;;;;;;5.20;3.47;;;;;;;5.83;52.08;100553.03;5095362;28;20062;-21
2022/04/02 11:22:09;;;;;;;6.88;2.90;;;;;;;5.88;51.39;100553.94;5096426;28;20408;-22
2022/04/02 11:24:42;;;;;;;3.53;3.10;;;;;;;5.91;51.67;100556.59;5096461;28;20439;-21
2022/04/02 11:27:16;;;;;;;3.47;2.60;;;;;;;5.94;51.30;100559.25;5075287;28;20427;-21
2022/04/02 11:29:49;;;;;;;4.20;2.70;;;;;;;5.94;51.29;100554.00;5089049;28;20020;-22
2022/04/02 11:32:15;;;;;;;3.22;2.92;;;;;;;5.99;51.32;100552.28;5088313;28;20016;-22
2022/04/02 11:34:42;;;;;;;3.92;3.00;;;;;;;5.97;50.68;100553.16;5074161;28;20035;-22
2022/04/02 11:37:10;;;;;;;4.03;2.83;;;;;;;5.99;50.52;100560.16;5091138;28;20030;-22
2022/04/02 11:39:48;;;;;;;3.85;2.83;;;;;;;6.03;50.43;100553.19;5084748;28;20392;-22
2022/04/02 11:42:14;;;;;;;3.85;2.75;;;;;;;6.03;50.62;100561.03;5095274;28;20047;-21
2022/04/02 11:44:54;;;;;;;4.82;2.28;;;;;;;6.06;50.55;100557.63;5094235;28;20442;-22
2022/04/02 11:47:28;;;;;;;2.65;2.40;;;;;;;6.08;49.68;100568.97;5095664;28;20051;-22
2022/04/02 11:49:55;;;;;;;5.22;2.78;;;;;;;6.11;49.73;100563.75;5089231;28;20035;-22
2022/04/02 11:52:20;;;;;;;3.40;2.70;;;;;;;6.12;50.14;100565.50;5070866;28;20020;-22